Terminal Aerodrome Forecast
Issued by NWS

Home | Current Version | Previous Version | Text Only | Print | Product List | Glossary On
Versions: 1 2 3 4 5 6 7 8 9 10 11 12 13 14 15
221
FTUS41 KAKQ 171725
TAFPHF
TAF
KPHF 171725Z 1718/1818 32008KT P6SM SKC
     FM180100 VRB03KT P6SM SCT250
     FM180500 20005KT P6SM SCT250
     FM181100 21011KT P6SM SCT250
     FM181400 21013G21KT P6SM SCT200=

USA.gov is the U.S. government's official web portal to all federal, state and local government web resources and services.